Time;durP1;ratioP1;P1;durP2;ratioP2;P2;SDS_P1;SDS_P2;PMS_P1;PMS_P2;Temp;Humidity;BMP_temperature;BMP_pressure;BME280_temperature;BME280_humidity;BME280_pressure;Samples;Min_cycle;Max_cycle;Signal;HPM_P1;HPM_P2
2022/05/11 00:00:23;;;;;;;4.20;3.90;;;17.90;80.90;;;;;;4125640;28;20059;-75
2022/05/11 00:02:24;;;;;;;3.53;3.25;;;17.90;80.90;;;;;;4123951;28;20062;-75
2022/05/11 00:04:26;;;;;;;3.92;3.22;;;17.80;81.10;;;;;;4124770;28;20791;-76
2022/05/11 00:06:29;;;;;;;3.28;3.08;;;17.80;81.20;;;;;;4135813;28;20051;-76
2022/05/11 00:08:31;;;;;;;5.57;3.40;;;17.80;81.20;;;;;;4123247;28;20197;-75
2022/05/11 00:10:34;;;;;;;3.28;3.05;;;17.80;80.90;;;;;;4125282;28;20063;-75
2022/05/11 00:12:35;;;;;;;3.63;3.33;;;17.80;80.50;;;;;;4126963;28;21365;-75
2022/05/11 00:14:37;;;;;;;3.80;3.50;;;17.80;80.60;;;;;;4124165;28;20094;-75
2022/05/11 00:16:40;;;;;;;4.30;3.50;;;17.80;80.50;;;;;;4120687;28;20268;-75
2022/05/11 00:18:42;;;;;;;6.97;3.90;;;17.80;80.70;;;;;;4120664;28;20130;-75
2022/05/11 00:20:43;;;;;;;3.40;3.00;;;17.80;80.60;;;;;;4132447;28;20129;-76
2022/05/11 00:22:45;;;;;;;3.33;2.90;;;17.80;80.50;;;;;;4123978;28;20807;-75
2022/05/11 00:24:47;;;;;;;3.60;2.78;;;17.80;81.30;;;;;;4120814;28;20062;-76
2022/05/11 00:26:49;;;;;;;3.95;3.22;;;17.80;80.70;;;;;;4121669;28;20062;-75
2022/05/11 00:28:51;;;;;;;3.30;3.10;;;17.80;81.30;;;;;;4118915;28;20055;-75
2022/05/11 00:30:53;;;;;;;3.10;2.88;;;17.80;81.30;;;;;;4124267;28;20909;-75
2022/05/11 00:32:57;;;;;;;3.75;3.28;;;17.80;81.50;;;;;;4129966;28;20063;-75
2022/05/11 00:34:59;;;;;;;3.25;3.03;;;17.70;81.80;;;;;;4127252;28;20055;-75
2022/05/11 00:37:00;;;;;;;4.07;3.10;;;17.70;81.60;;;;;;4120804;28;20051;-75
2022/05/11 00:39:03;;;;;;;4.80;3.22;;;17.70;82.10;;;;;;4124447;28;20070;-75
2022/05/11 00:41:05;;;;;;;3.97;3.70;;;17.70;82.20;;;;;;4124242;28;20861;-75
2022/05/11 00:43:08;;;;;;;3.60;3.30;;;17.70;82.30;;;;;;4120173;28;20065;-75
2022/05/11 00:45:10;;;;;;;4.15;3.85;;;17.60;82.40;;;;;;4125770;28;20093;-75
2022/05/11 00:47:30;;;;;;;3.92;3.53;;;17.60;82.50;;;;;;4126897;28;20820;-75
2022/05/11 00:49:39;;;;;;;3.92;3.63;;;17.60;82.70;;;;;;4123093;28;20870;-75
2022/05/11 00:51:45;;;;;;;15.15;4.60;;;17.60;82.90;;;;;;4126420;28;20074;-75
2022/05/11 00:53:53;;;;;;;5.70;4.00;;;17.50;82.70;;;;;;4122909;28;20085;-75
2022/05/11 00:55:57;;;;;;;4.15;3.85;;;17.50;83.00;;;;;;4123885;28;20059;-76
2022/05/11 00:58:17;;;;;;;4.40;4.10;;;17.40;83.20;;;;;;4125269;28;20060;-75
2022/05/11 01:00:21;;;;;;;4.00;3.70;;;17.40;83.50;;;;;;4121416;28;20796;-75
2022/05/11 01:02:23;;;;;;;5.72;3.70;;;17.40;83.40;;;;;;4127616;28;20091;-74
2022/05/11 01:04:25;;;;;;;7.22;4.20;;;17.40;83.30;;;;;;4124488;28;20137;-75
2022/05/11 01:06:30;;;;;;;4.07;3.78;;;17.40;83.80;;;;;;4122479;28;20055;-75
2022/05/11 01:08:32;;;;;;;4.47;4.18;;;17.40;83.60;;;;;;4128017;28;20062;-75
2022/05/11 01:10:34;;;;;;;4.93;3.80;;;17.40;83.60;;;;;;4127452;28;20162;-75
2022/05/11 01:12:40;;;;;;;4.13;3.83;;;17.40;84.00;;;;;;4121887;28;20154;-76
2022/05/11 01:14:45;;;;;;;3.72;3.42;;;17.30;83.50;;;;;;4124555;28;20071;-75
2022/05/11 01:16:48;;;;;;;4.28;3.97;;;17.40;83.60;;;;;;4125284;28;20055;-75
2022/05/11 01:18:50;;;;;;;3.53;3.33;;;17.40;83.50;;;;;;4125155;28;20178;-76
2022/05/11 01:20:52;;;;;;;4.15;3.85;;;17.40;83.40;;;;;;4122356;28;20153;-75
2022/05/11 01:23:02;;;;;;;3.63;3.30;;;17.40;83.50;;;;;;4125222;28;20093;-74
2022/05/11 01:25:09;;;;;;;3.63;3.33;;;17.40;83.70;;;;;;4126197;28;20165;-75
2022/05/11 01:27:31;;;;;;;3.67;3.38;;;17.40;83.80;;;;;;4129533;28;20607;-75
2022/05/11 01:29:32;;;;;;;3.88;3.22;;;17.40;83.60;;;;;;4128670;28;20154;-75
2022/05/11 01:31:34;;;;;;;3.35;3.10;;;17.40;83.40;;;;;;4127536;28;20081;-75
2022/05/11 01:33:39;;;;;;;3.95;3.65;;;17.40;83.70;;;;;;4130740;28;20061;-75
2022/05/11 01:36:15;;;;;;;3.45;3.20;;;17.40;83.50;;;;;;4126892;28;20047;-76
2022/05/11 01:38:36;;;;;;;3.70;3.40;;;17.40;83.70;;;;;;4126007;28;20065;-75
2022/05/11 01:40:37;;;;;;;3.42;3.22;;;17.40;83.60;;;;;;4129994;28;20059;-75
2022/05/11 01:42:39;;;;;;;3.92;3.55;;;17.40;83.50;;;;;;4125855;28;20063;-75
2022/05/11 01:44:41;;;;;;;4.70;3.33;;;17.40;83.80;;;;;;4124943;28;20085;-75
2022/05/11 01:46:48;;;;;;;3.70;3.40;;;17.40;83.90;;;;;;4129249;28;20061;-75
2022/05/11 01:48:50;;;;;;;3.70;3.40;;;17.40;84.10;;;;;;4122446;28;20065;-75
2022/05/11 01:50:52;;;;;;;3.85;3.63;;;17.40;84.00;;;;;;4124367;28;20054;-76
2022/05/11 01:52:54;;;;;;;3.45;3.25;;;17.30;84.10;;;;;;4123317;28;20814;-75
2022/05/11 01:54:55;;;;;;;3.72;3.42;;;17.30;84.10;;;;;;4124821;28;20042;-76
2022/05/11 01:56:59;;;;;;;6.72;2.90;;;17.40;84.10;;;;;;4126255;28;20703;-75
2022/05/11 01:59:01;;;;;;;3.45;3.25;;;17.30;84.30;;;;;;4127252;28;20690;-75
2022/05/11 02:01:04;;;;;;;3.38;3.08;;;17.30;84.60;;;;;;4123268;28;20957;-75
2022/05/11 02:03:06;;;;;;;4.93;3.60;;;17.30;84.30;;;;;;4120147;28;20082;-74
2022/05/11 02:09:49;;;;;;;3.78;3.47;;;17.30;84.80;;;;;;4125851;28;20059;-75
2022/05/11 02:11:51;;;;;;;3.53;3.30;;;17.30;84.70;;;;;;4126235;28;20793;-76
2022/05/11 02:13:53;;;;;;;4.32;3.65;;;17.30;85.30;;;;;;4132649;28;20063;-75
2022/05/11 02:15:55;;;;;;;6.25;3.15;;;17.30;84.70;;;;;;4125969;28;20059;-76
2022/05/11 02:17:57;;;;;;;3.80;3.50;;;17.30;85.00;;;;;;4127993;28;20102;-75
2022/05/11 02:19:58;;;;;;;3.88;3.47;;;17.30;85.10;;;;;;4128914;28;20061;-75
2022/05/11 02:22:00;;;;;;;5.22;4.13;;;17.30;85.00;;;;;;4124325;28;20167;-75
2022/05/11 02:24:02;;;;;;;3.78;3.45;;;17.30;85.80;;;;;;4133240;28;20059;-75
2022/05/11 02:26:04;;;;;;;6.32;4.70;;;17.30;85.00;;;;;;4127909;28;20057;-75
2022/05/11 02:28:06;;;;;;;3.75;3.40;;;17.20;85.00;;;;;;4127996;28;20700;-75
2022/05/11 02:30:11;;;;;;;5.97;4.13;;;17.20;85.40;;;;;;4125213;28;20886;-74
2022/05/11 02:32:13;;;;;;;4.25;3.95;;;17.20;85.40;;;;;;4128091;28;20943;-75
2022/05/11 02:35:12;;;;;;;3.95;3.65;;;17.20;85.40;;;;;;4125591;28;20064;-74
2022/05/11 02:36:36;;;;;;;3.63;3.40;;;17.20;85.60;;;;;;4127535;28;20056;-75
2022/05/11 02:38:41;;;;;;;3.97;3.67;;;17.20;85.60;;;;;;4124332;28;20082;-75
2022/05/11 02:40:43;;;;;;;3.70;3.45;;;17.20;85.60;;;;;;4126425;28;20138;-75
2022/05/11 02:42:45;;;;;;;3.65;3.45;;;17.20;85.60;;;;;;4126134;28;20059;-75
2022/05/11 02:44:47;;;;;;;3.80;3.50;;;17.20;85.70;;;;;;4130724;28;20111;-79
2022/05/11 02:46:49;;;;;;;3.65;3.40;;;17.20;85.80;;;;;;4131209;28;20094;-74
2022/05/11 02:48:51;;;;;;;3.70;3.40;;;17.20;85.80;;;;;;4122986;28;20060;-75
2022/05/11 02:50:55;;;;;;;3.95;3.65;;;17.20;85.80;;;;;;4128152;28;20065;-75
2022/05/11 02:52:57;;;;;;;3.78;3.40;;;17.20;86.10;;;;;;4127151;28;20060;-75
2022/05/11 02:54:59;;;;;;;5.45;3.53;;;17.20;86.10;;;;;;4124037;28;20058;-75
2022/05/11 02:57:01;;;;;;;4.30;3.90;;;17.10;86.00;;;;;;4125583;28;20065;-75
2022/05/11 02:59:02;;;;;;;3.80;3.60;;;17.10;86.00;;;;;;4123182;28;20153;-75
2022/05/11 03:01:04;;;;;;;4.90;3.78;;;17.10;86.30;;;;;;4122647;28;20063;-75
2022/05/11 03:03:07;;;;;;;3.72;3.53;;;17.10;86.40;;;;;;4123217;28;20060;-75
2022/05/11 03:05:11;;;;;;;5.68;3.85;;;17.10;86.30;;;;;;4125871;28;20101;-75
2022/05/11 03:07:13;;;;;;;5.95;3.38;;;17.10;86.40;;;;;;4132201;28;20080;-75
2022/05/11 03:09:15;;;;;;;4.38;3.72;;;17.00;86.40;;;;;;4119922;28;20738;-75
2022/05/11 03:11:17;;;;;;;3.70;3.40;;;17.00;87.00;;;;;;4128371;28;20647;-75
2022/05/11 03:13:18;;;;;;;12.38;3.63;;;17.00;86.80;;;;;;4119552;28;20059;-75
2022/05/11 03:15:21;;;;;;;4.07;3.45;;;16.90;86.90;;;;;;4122832;28;20098;-74
2022/05/11 03:17:22;;;;;;;4.22;3.92;;;16.90;87.00;;;;;;4122800;28;20059;-74
2022/05/11 03:19:24;;;;;;;3.83;3.55;;;16.90;86.90;;;;;;4119003;28;20318;-75
2022/05/11 03:21:26;;;;;;;4.53;4.15;;;16.90;86.80;;;;;;4123435;28;20059;-75
2022/05/11 03:23:27;;;;;;;6.75;4.05;;;16.90;87.00;;;;;;4124877;28;20065;-75
2022/05/11 03:25:30;;;;;;;3.70;3.47;;;16.80;87.40;;;;;;4130378;28;20554;-75
2022/05/11 03:27:32;;;;;;;4.32;3.83;;;16.80;87.30;;;;;;4130441;28;20054;-75
2022/05/11 03:29:34;;;;;;;3.70;3.40;;;16.80;87.50;;;;;;4123117;28;20889;-75
2022/05/11 03:31:37;;;;;;;5.88;4.05;;;16.70;87.60;;;;;;4125885;28;20058;-75
2022/05/11 03:35:59;;;;;;;4.10;3.80;;;16.70;87.70;;;;;;4124311;28;20783;-75
2022/05/11 03:38:01;;;;;;;4.15;3.85;;;16.70;87.60;;;;;;4123820;28;20050;-75
2022/05/11 03:40:07;;;;;;;6.97;4.57;;;16.60;87.80;;;;;;4126777;28;20063;-75
2022/05/11 03:42:13;;;;;;;16.42;7.38;;;16.60;88.00;;;;;;4126135;28;20063;-75
2022/05/11 03:44:15;;;;;;;10.45;6.05;;;16.60;88.00;;;;;;4126399;28;20062;-75
2022/05/11 03:46:16;;;;;;;19.65;8.60;;;16.60;88.30;;;;;;4126894;28;21176;-74
2022/05/11 03:48:18;;;;;;;23.17;8.63;;;16.60;88.60;;;;;;4127344;28;20067;-75
2022/05/11 03:50:22;;;;;;;6.70;4.38;;;16.60;88.80;;;;;;4127131;28;20058;-75
2022/05/11 03:52:24;;;;;;;7.97;4.72;;;16.50;88.40;;;;;;4132542;28;20085;-75
2022/05/11 03:54:25;;;;;;;15.40;5.10;;;16.50;88.40;;;;;;4130166;28;20820;-75
2022/05/11 03:56:28;;;;;;;5.30;4.90;;;16.50;88.70;;;;;;4131210;28;20680;-75
2022/05/11 03:58:30;;;;;;;5.35;4.55;;;16.50;88.70;;;;;;4131379;28;20058;-75
2022/05/11 04:00:32;;;;;;;4.10;3.72;;;16.50;88.70;;;;;;4129691;28;20058;-75
2022/05/11 04:02:34;;;;;;;4.32;4.03;;;16.40;88.60;;;;;;4131657;28;20102;-75
2022/05/11 04:04:36;;;;;;;4.70;4.30;;;16.50;88.70;;;;;;4130494;28;20110;-74
2022/05/11 04:06:38;;;;;;;5.43;4.93;;;16.40;88.70;;;;;;4128209;28;20153;-75
2022/05/11 04:08:42;;;;;;;5.95;4.13;;;16.40;88.70;;;;;;4130268;28;20065;-74
2022/05/11 04:10:43;;;;;;;3.92;3.63;;;16.40;88.70;;;;;;4128755;28;20058;-75
2022/05/11 04:12:46;;;;;;;3.97;3.67;;;16.40;88.80;;;;;;4129759;28;20165;-75
2022/05/11 04:14:47;;;;;;;4.40;4.05;;;16.40;88.90;;;;;;4132076;28;20058;-75
2022/05/11 04:16:58;;;;;;;6.30;4.22;;;16.40;88.80;;;;;;4129191;28;20061;-75
2022/05/11 04:19:01;;;;;;;5.10;4.70;;;16.30;88.80;;;;;;4129519;28;20057;-74
2022/05/11 04:21:03;;;;;;;5.50;5.00;;;16.30;89.40;;;;;;4127994;28;20192;-75
2022/05/11 04:23:05;;;;;;;4.20;3.78;;;16.30;89.70;;;;;;4130324;28;20054;-75
2022/05/11 04:25:07;;;;;;;5.65;4.22;;;16.30;89.50;;;;;;4119934;28;20061;-75
2022/05/11 04:27:10;;;;;;;4.80;4.40;;;16.30;89.30;;;;;;4122889;28;20065;-75
2022/05/11 04:29:12;;;;;;;4.38;4.07;;;16.30;89.70;;;;;;4131150;28;20732;-75
2022/05/11 04:31:13;;;;;;;4.53;4.13;;;16.30;89.40;;;;;;4125439;28;20889;-75
2022/05/11 04:33:15;;;;;;;4.45;3.90;;;16.30;89.20;;;;;;4120050;28;20149;-75
2022/05/11 04:35:17;;;;;;;5.03;4.63;;;16.30;89.30;;;;;;4124739;28;20098;-74
2022/05/11 04:37:19;;;;;;;4.65;4.25;;;16.30;89.40;;;;;;4123730;28;20054;-75
2022/05/11 04:39:20;;;;;;;4.10;3.58;;;16.30;89.30;;;;;;4128506;28;20181;-74
2022/05/11 04:41:23;;;;;;;4.32;4.03;;;16.30;89.30;;;;;;4124361;28;20055;-74
2022/05/11 04:43:25;;;;;;;4.63;4.00;;;16.30;89.30;;;;;;4126088;28;20066;-75
2022/05/11 04:45:27;;;;;;;4.60;4.18;;;16.20;89.00;;;;;;4128751;28;20114;-74
2022/05/11 04:47:29;;;;;;;4.72;4.30;;;16.20;89.20;;;;;;4125727;28;20058;-75
2022/05/11 04:49:30;;;;;;;4.60;4.28;;;16.20;89.10;;;;;;4126126;28;20057;-75
2022/05/11 04:51:32;;;;;;;4.18;3.88;;;16.20;89.20;;;;;;4126510;28;20813;-74
2022/05/11 04:53:34;;;;;;;4.30;4.00;;;16.20;89.70;;;;;;4127556;28;20173;-73
2022/05/11 04:55:36;;;;;;;4.78;4.10;;;16.20;89.60;;;;;;4128552;28;20059;-73
2022/05/11 04:57:38;;;;;;;4.72;4.40;;;16.20;89.10;;;;;;4126015;28;20782;-73
2022/05/11 04:59:40;;;;;;;4.15;3.85;;;16.20;89.20;;;;;;4126160;28;20070;-73
2022/05/11 05:01:42;;;;;;;5.43;3.80;;;16.10;89.20;;;;;;4127977;28;20062;-74
2022/05/11 05:03:44;;;;;;;3.72;3.42;;;16.10;89.10;;;;;;4126944;28;20058;-74
2022/05/11 05:05:45;;;;;;;3.85;3.55;;;16.20;89.10;;;;;;4127251;28;20157;-74
2022/05/11 05:07:47;;;;;;;4.47;4.18;;;16.20;88.90;;;;;;4125336;28;20109;-76
2022/05/11 05:09:49;;;;;;;4.60;4.03;;;16.20;88.60;;;;;;4143188;22;20138;-72
2022/05/11 05:11:51;;;;;;;4.05;3.75;;;16.30;88.20;;;;;;4171242;28;20061;-73
2022/05/11 05:13:53;;;;;;;4.35;3.95;;;16.40;88.10;;;;;;4172113;28;20220;-72
2022/05/11 05:15:57;;;;;;;3.92;3.63;;;16.30;87.70;;;;;;4172315;28;20057;-72
2022/05/11 05:18:01;;;;;;;5.40;4.13;;;16.40;87.70;;;;;;4171277;28;20151;-73
2022/05/11 05:20:04;;;;;;;4.28;3.88;;;16.30;87.70;;;;;;4173508;28;20065;-73
2022/05/11 05:22:06;;;;;;;4.45;3.80;;;16.40;87.90;;;;;;4170276;28;20054;-73
2022/05/11 05:24:07;;;;;;;4.00;3.70;;;16.50;87.50;;;;;;4176908;28;20659;-73
2022/05/11 05:26:09;;;;;;;6.88;4.18;;;16.60;87.10;;;;;;4176499;28;20058;-72
2022/05/11 05:32:54;;;;;;;3.75;3.28;;;17.00;85.70;;;;;;4178201;28;20077;-73
2022/05/11 05:34:57;;;;;;;6.18;3.92;;;17.10;85.30;;;;;;4171710;28;20081;-73
2022/05/11 05:36:59;;;;;;;3.65;3.28;;;17.20;85.20;;;;;;4166177;28;20788;-72
2022/05/11 05:39:02;;;;;;;7.10;3.88;;;17.30;84.80;;;;;;4167911;28;20686;-72
2022/05/11 05:41:09;;;;;;;3.80;3.58;;;17.40;84.50;;;;;;4168938;28;20041;-72
2022/05/11 05:43:11;;;;;;;3.85;3.30;;;17.60;84.50;;;;;;4166580;28;20069;-73
2022/05/11 05:45:13;;;;;;;3.50;3.30;;;17.70;83.70;;;;;;4171188;28;20045;-73
2022/05/11 05:47:16;;;;;;;3.95;3.65;;;17.80;83.40;;;;;;4173834;28;20058;-73
2022/05/11 05:49:17;;;;;;;4.28;3.58;;;17.90;83.10;;;;;;4176630;28;20068;-73
2022/05/11 05:51:20;;;;;;;4.43;3.60;;;18.00;82.70;;;;;;4174792;28;20072;-73
2022/05/11 05:53:22;;;;;;;4.68;3.72;;;18.10;82.50;;;;;;4175660;28;20065;-72
2022/05/11 05:55:24;;;;;;;6.55;3.85;;;18.20;82.10;;;;;;4173787;28;20053;-72
2022/05/11 05:57:27;;;;;;;3.53;3.25;;;18.30;82.20;;;;;;4175920;28;20058;-72
2022/05/11 05:59:29;;;;;;;4.50;4.13;;;18.40;81.60;;;;;;4177381;28;20100;-73
2022/05/11 06:01:30;;;;;;;3.63;3.42;;;18.50;81.20;;;;;;4175286;28;20096;-71
2022/05/11 06:03:35;;;;;;;3.80;3.58;;;18.60;81.10;;;;;;4177932;28;20096;-72
2022/05/11 06:05:39;;;;;;;3.92;3.65;;;18.70;81.20;;;;;;4177282;28;20127;-73
2022/05/11 06:07:41;;;;;;;4.22;3.92;;;18.80;80.60;;;;;;4176779;28;20173;-71
2022/05/11 06:09:43;;;;;;;5.88;3.88;;;18.90;80.00;;;;;;4179026;28;20063;-72
2022/05/11 06:11:45;;;;;;;4.20;3.90;;;19.00;79.70;;;;;;4175077;28;20077;-72
2022/05/11 06:13:46;;;;;;;4.30;3.60;;;19.10;79.30;;;;;;4172136;28;20705;-70
2022/05/11 06:15:53;;;;;;;3.92;3.38;;;19.10;79.20;;;;;;4179097;28;20758;-75
2022/05/11 06:17:56;;;;;;;3.70;3.50;;;19.20;79.10;;;;;;4181212;28;20232;-76
2022/05/11 06:19:58;;;;;;;3.42;3.13;;;19.30;78.90;;;;;;4178845;28;20037;-75
2022/05/11 06:22:00;;;;;;;4.50;3.33;;;19.30;78.30;;;;;;4180299;28;20068;-76
2022/05/11 06:24:03;;;;;;;3.67;3.47;;;19.40;78.20;;;;;;4182963;28;20129;-76
2022/05/11 06:26:05;;;;;;;7.68;3.60;;;19.50;78.00;;;;;;4181594;28;20819;-75
2022/05/11 06:28:07;;;;;;;3.63;3.35;;;19.60;77.70;;;;;;4181492;28;20088;-75
2022/05/11 06:30:09;;;;;;;3.00;2.80;;;19.60;77.60;;;;;;4181273;28;20780;-75
2022/05/11 06:32:11;;;;;;;3.08;2.88;;;19.70;77.20;;;;;;4177813;28;20064;-75
2022/05/11 06:34:15;;;;;;;3.78;3.33;;;19.70;77.10;;;;;;4180863;28;20129;-74
2022/05/11 06:36:18;;;;;;;3.05;2.85;;;19.80;76.60;;;;;;4179182;28;20780;-75
2022/05/11 06:38:20;;;;;;;3.05;2.85;;;19.80;75.80;;;;;;4177784;28;20062;-74
2022/05/11 06:40:22;;;;;;;3.17;2.97;;;19.80;76.10;;;;;;4173365;28;20061;-75
2022/05/11 06:42:24;;;;;;;5.65;2.90;;;20.00;76.50;;;;;;4180888;28;20060;-77
2022/05/11 06:44:26;;;;;;;3.47;3.28;;;20.00;76.20;;;;;;4172035;28;20131;-74
2022/05/11 06:46:27;;;;;;;3.08;2.80;;;20.10;75.50;;;;;;4181168;28;20088;-75
2022/05/11 06:48:29;;;;;;;2.92;2.70;;;20.10;75.20;;;;;;4174144;28;20930;-75
2022/05/11 06:50:31;;;;;;;3.28;2.97;;;20.10;75.60;;;;;;4172151;28;21032;-75
2022/05/11 06:52:33;;;;;;;2.50;2.30;;;20.10;75.10;;;;;;4170372;28;20062;-76
2022/05/11 06:59:21;;;;;;;2.88;2.67;;;20.10;74.80;;;;;;4170701;28;20061;-76
2022/05/11 07:01:23;;;;;;;4.70;3.17;;;20.10;74.10;;;;;;4173136;28;20057;-75
2022/05/11 07:03:25;;;;;;;3.00;2.80;;;20.10;73.90;;;;;;4176595;28;20042;-77
2022/05/11 07:05:29;;;;;;;2.92;2.72;;;20.10;73.20;;;;;;4171716;28;20053;-76
2022/05/11 07:07:31;;;;;;;2.80;2.60;;;20.20;73.40;;;;;;4173331;28;20066;-76
2022/05/11 07:09:35;;;;;;;4.55;2.80;;;20.30;73.80;;;;;;4176398;28;20057;-75
2022/05/11 07:14:03;;;;;;;2.47;2.35;;;20.50;72.40;;;;;;4172644;28;20509;-77
2022/05/11 07:16:05;;;;;;;4.13;2.78;;;20.60;71.30;;;;;;4173280;28;20168;-78
2022/05/11 07:18:07;;;;;;;2.80;2.60;;;20.60;71.20;;;;;;4172813;28;20070;-76
2022/05/11 07:20:16;;;;;;;5.20;2.50;;;20.60;70.80;;;;;;4184229;28;20170;-75
2022/05/11 07:22:18;;;;;;;4.60;2.47;;;20.70;70.50;;;;;;4176796;28;20244;-75
2022/05/11 07:24:20;;;;;;;4.35;2.70;;;20.70;69.80;;;;;;4178554;28;20180;-77
2022/05/11 07:26:22;;;;;;;2.53;2.40;;;20.70;69.70;;;;;;4175290;28;20064;-75
2022/05/11 07:28:24;;;;;;;2.47;2.38;;;20.70;70.30;;;;;;4173846;28;20100;-75
2022/05/11 07:30:32;;;;;;;5.50;2.40;;;20.80;69.20;;;;;;4173019;28;20057;-75
2022/05/11 07:32:40;;;;;;;2.28;2.15;;;20.80;68.90;;;;;;4176556;28;20151;-76
2022/05/11 07:34:42;;;;;;;3.53;2.50;;;20.80;69.60;;;;;;4174294;28;20041;-76
2022/05/11 07:36:44;;;;;;;2.83;2.63;;;20.80;68.80;;;;;;4173622;28;20875;-77
2022/05/11 07:38:46;;;;;;;2.83;2.63;;;20.90;68.60;;;;;;4179164;28;20069;-77
2022/05/11 07:40:47;;;;;;;4.13;2.90;;;20.90;68.50;;;;;;4174523;28;20045;-76
2022/05/11 07:42:50;;;;;;;2.42;2.17;;;20.90;67.70;;;;;;4176811;28;20180;-77
2022/05/11 07:44:52;;;;;;;2.58;2.38;;;20.90;68.50;;;;;;4175127;28;20056;-74
2022/05/11 07:46:55;;;;;;;2.95;2.58;;;20.90;68.20;;;;;;4175425;28;20057;-77
2022/05/11 07:48:59;;;;;;;3.42;2.28;;;21.00;68.30;;;;;;4173160;28;20061;-75
2022/05/11 07:51:00;;;;;;;3.40;3.13;;;21.00;69.10;;;;;;4171767;28;20062;-76
2022/05/11 07:53:02;;;;;;;2.55;2.20;;;21.20;68.50;;;;;;4176257;28;20904;-75
2022/05/11 07:55:04;;;;;;;2.13;1.98;;;21.30;68.20;;;;;;4175493;28;20062;-74
2022/05/11 08:01:48;;;;;;;5.07;2.75;;;21.40;67.20;;;;;;4172231;28;20909;-76
2022/05/11 08:03:50;;;;;;;2.95;2.42;;;21.40;66.40;;;;;;4170137;28;20676;-75
2022/05/11 08:05:52;;;;;;;2.92;2.47;;;21.50;66.90;;;;;;4169642;28;20778;-76
2022/05/11 08:07:56;;;;;;;2.60;2.40;;;21.50;67.50;;;;;;4168751;28;20054;-76
2022/05/11 08:09:59;;;;;;;2.80;2.00;;;21.60;66.40;;;;;;4170502;28;20058;-76
2022/05/11 08:12:01;;;;;;;2.38;2.22;;;21.60;67.00;;;;;;4165549;28;20125;-77
2022/05/11 08:14:03;;;;;;;2.20;2.10;;;21.70;66.80;;;;;;4169620;28;20058;-76
2022/05/11 08:16:04;;;;;;;3.17;2.63;;;21.70;65.80;;;;;;4174539;28;20081;-76
2022/05/11 08:18:07;;;;;;;2.40;2.20;;;21.70;65.60;;;;;;4168531;28;20053;-75
2022/05/11 08:20:14;;;;;;;7.00;2.88;;;21.70;66.50;;;;;;4167935;28;20073;-76
2022/05/11 08:22:16;;;;;;;2.50;2.22;;;21.80;66.00;;;;;;4172040;28;20058;-77
2022/05/11 08:24:19;;;;;;;2.60;2.40;;;21.80;65.30;;;;;;4173090;28;20148;-75
2022/05/11 08:26:20;;;;;;;2.28;2.08;;;21.90;64.50;;;;;;4175395;28;20749;-75
2022/05/11 08:28:24;;;;;;;3.47;2.45;;;22.00;64.70;;;;;;4170303;28;20777;-77
2022/05/11 08:35:33;;;;;;;2.10;2.00;;;22.20;65.10;;;;;;4177891;28;20067;-77
2022/05/11 08:37:40;;;;;;;4.38;2.35;;;22.40;64.30;;;;;;4178730;28;20062;-76
2022/05/11 08:39:42;;;;;;;2.20;2.00;;;22.50;63.70;;;;;;4172724;28;20060;-79
2022/05/11 08:41:49;;;;;;;2.67;2.47;;;22.50;63.40;;;;;;4176084;28;20061;-78
2022/05/11 08:43:59;;;;;;;3.38;2.35;;;22.60;62.30;;;;;;4177672;28;20053;-77
2022/05/11 08:46:22;;;;;;;4.28;2.47;;;22.60;62.30;;;;;;4173959;28;20073;-76
2022/05/11 08:48:48;;;;;;;2.28;2.13;;;22.70;61.70;;;;;;4174413;28;20499;-77
2022/05/11 08:50:50;;;;;;;2.75;2.40;;;22.70;62.90;;;;;;4173355;28;20065;-77
2022/05/11 08:53:02;;;;;;;2.40;2.30;;;22.70;61.90;;;;;;4173778;28;20054;-77
2022/05/11 08:55:11;;;;;;;2.60;2.40;;;22.80;61.80;;;;;;4172916;28;20061;-76
2022/05/11 08:57:19;;;;;;;3.05;2.40;;;22.90;62.30;;;;;;4175260;28;20058;-77
2022/05/11 08:59:30;;;;;;;5.00;2.47;;;22.90;62.70;;;;;;4174413;28;20620;-77
2022/05/11 09:01:45;;;;;;;4.30;2.70;;;22.90;61.30;;;;;;4172878;28;20050;-78
2022/05/11 09:03:53;;;;;;;2.60;2.40;;;22.90;62.30;;;;;;4173613;28;20159;-77
2022/05/11 09:05:56;;;;;;;5.78;2.13;;;23.00;62.10;;;;;;4172715;28;20164;-78
2022/05/11 09:07:59;;;;;;;2.92;2.70;;;23.00;61.40;;;;;;4175928;28;20140;-75
2022/05/11 09:10:01;;;;;;;2.40;2.30;;;23.00;61.50;;;;;;4175601;28;20064;-77
2022/05/11 09:12:03;;;;;;;4.18;2.72;;;23.00;61.80;;;;;;4176273;28;20061;-74
2022/05/11 09:14:05;;;;;;;3.60;2.35;;;23.00;62.30;;;;;;4174630;28;20056;-75
2022/05/11 09:16:23;;;;;;;2.97;2.72;;;23.10;63.70;;;;;;4175600;28;20184;-79
2022/05/11 09:18:31;;;;;;;2.63;2.42;;;23.20;62.20;;;;;;4178918;28;20061;-77
2022/05/11 09:20:35;;;;;;;2.95;2.75;;;23.20;62.60;;;;;;4169060;28;20068;-74
2022/05/11 09:22:43;;;;;;;5.10;2.45;;;23.20;61.80;;;;;;4167946;28;20058;-77
2022/05/11 09:24:55;;;;;;;3.30;2.65;;;23.30;61.20;;;;;;4166406;28;20088;-79
2022/05/11 09:27:10;;;;;;;2.78;2.58;;;23.40;61.90;;;;;;4167799;28;20069;-77
2022/05/11 09:29:25;;;;;;;2.85;2.65;;;23.50;60.60;;;;;;4179462;28;20064;-78
2022/05/11 09:31:28;;;;;;;3.70;2.28;;;23.60;61.90;;;;;;4169239;28;20064;-78
2022/05/11 09:33:33;;;;;;;3.10;2.65;;;23.60;59.80;;;;;;4171587;28;20908;-79
2022/05/11 09:35:37;;;;;;;4.80;2.40;;;23.60;60.00;;;;;;4181236;28;20061;-78
2022/05/11 09:37:53;;;;;;;3.28;3.08;;;23.60;60.70;;;;;;4170425;28;20156;-74
2022/05/11 09:40:06;;;;;;;3.40;3.17;;;23.60;60.40;;;;;;4170788;28;20065;-76
2022/05/11 09:42:17;;;;;;;3.13;2.83;;;23.60;60.30;;;;;;4179856;28;20160;-79
2022/05/11 09:44:23;;;;;;;2.80;2.60;;;23.70;61.00;;;;;;4178521;28;20058;-78
2022/05/11 09:46:31;;;;;;;3.45;3.15;;;23.80;62.20;;;;;;4174978;28;20084;-77
2022/05/11 09:48:36;;;;;;;2.58;2.38;;;23.90;62.60;;;;;;4179746;28;20061;-77
2022/05/11 09:50:41;;;;;;;5.38;2.35;;;24.10;60.50;;;;;;4178361;28;20050;-77
2022/05/11 09:52:46;;;;;;;3.88;2.67;;;24.20;59.30;;;;;;4181835;28;20062;-78
2022/05/11 09:54:51;;;;;;;3.00;2.75;;;24.20;58.20;;;;;;4176470;28;20062;-77
2022/05/11 09:57:01;;;;;;;3.17;2.97;;;24.30;58.10;;;;;;4176607;28;20856;-77
2022/05/11 09:59:22;;;;;;;2.92;2.45;;;24.30;58.20;;;;;;4174942;28;20053;-77
2022/05/11 10:01:29;;;;;;;2.35;2.25;;;24.30;58.50;;;;;;4177905;28;20164;-77
2022/05/11 10:03:31;;;;;;;3.20;2.90;;;24.30;58.60;;;;;;4177736;28;20057;-77
2022/05/11 10:05:39;;;;;;;2.95;2.72;;;24.30;57.50;;;;;;4180328;28;20061;-77
2022/05/11 10:08:00;;;;;;;3.28;2.65;;;24.20;57.40;;;;;;4183952;28;20057;-78
2022/05/11 10:10:10;;;;;;;2.65;2.45;;;24.20;57.70;;;;;;4183578;28;20061;-78
2022/05/11 10:12:17;;;;;;;2.58;2.40;;;24.30;57.10;;;;;;4175510;28;20844;-78
2022/05/11 10:22:29;;;;;;;2.30;2.20;;;24.70;56.60;;;;;;4180833;28;20076;-79
2022/05/11 10:24:52;;;;;;;4.75;2.30;;;24.90;55.80;;;;;;4145731;28;20060;-76
2022/05/11 10:27:22;;;;;;;1.83;1.73;;;25.00;54.50;;;;;;4178440;28;20061;-78
2022/05/11 10:29:45;;;;;;;3.22;2.78;;;25.00;54.00;;;;;;4179653;28;20152;-76
2022/05/11 10:32:02;;;;;;;3.42;2.17;;;25.10;54.50;;;;;;4176439;28;20631;-77
2022/05/11 10:34:23;;;;;;;3.88;2.35;;;25.20;54.10;;;;;;4171878;28;20127;-76
2022/05/11 10:36:52;;;;;;;3.33;1.98;;;25.40;53.60;;;;;;4178138;28;20868;-77
2022/05/11 10:39:02;;;;;;;3.28;2.42;;;25.50;52.90;;;;;;4177086;28;20655;-76
2022/05/11 10:41:16;;;;;;;1.70;1.60;;;25.50;52.80;;;;;;4172746;28;20049;-75
2022/05/11 10:43:35;;;;;;;2.42;2.15;;;25.40;51.60;;;;;;4178464;28;20165;-77
2022/05/11 10:46:11;;;;;;;4.43;1.92;;;25.30;52.20;;;;;;4171896;28;20093;-77
2022/05/11 10:48:39;;;;;;;3.00;2.05;;;25.30;52.20;;;;;;4176592;28;20792;-76
2022/05/11 10:51:06;;;;;;;2.05;1.85;;;25.20;51.10;;;;;;4180307;28;20134;-76
2022/05/11 10:53:43;;;;;;;1.98;1.88;;;25.20;51.10;;;;;;4179581;28;20061;-76
2022/05/11 10:56:04;;;;;;;3.05;2.55;;;25.30;52.60;;;;;;4176835;28;20124;-77
2022/05/11 10:58:33;;;;;;;1.92;1.75;;;25.40;51.60;;;;;;4176739;28;20045;-77
2022/05/11 11:00:46;;;;;;;3.03;2.00;;;25.30;50.80;;;;;;4175762;28;20061;-75
2022/05/11 11:03:18;;;;;;;3.67;1.80;;;25.20;51.30;;;;;;4177272;28;20907;-77
2022/05/11 11:05:20;;;;;;;2.08;1.77;;;25.30;51.60;;;;;;4174046;28;20096;-76
2022/05/11 11:07:27;;;;;;;2.83;2.10;;;25.40;51.80;;;;;;4177521;28;20068;-77
2022/05/11 11:09:40;;;;;;;1.95;1.85;;;25.70;50.50;;;;;;4175471;28;20045;-75
2022/05/11 11:11:47;;;;;;;4.43;2.10;;;25.90;50.70;;;;;;4174671;28;20113;-77
2022/05/11 11:14:00;;;;;;;4.95;2.30;;;26.00;49.80;;;;;;4173213;28;20054;-77
2022/05/11 11:19:57;;;;;;;2.33;2.10;;;26.20;50.10;;;;;;4121860;28;20056;-80
2022/05/11 11:22:25;;;;;;;1.85;1.40;;;26.20;50.50;;;;;;4071300;28;20054;-80
2022/05/11 11:25:26;;;;;;;2.38;2.17;;;26.20;48.70;;;;;;4085401;29;20044;-81
2022/05/11 11:28:40;;;;;;;2.53;1.60;;;26.20;48.50;;;;;;4089065;28;20127;-80
2022/05/11 11:31:28;;;;;;;3.13;2.50;;;26.20;49.00;;;;;;4083817;28;20056;-78
2022/05/11 11:34:03;;;;;;;3.08;1.75;;;26.30;49.90;;;;;;4085123;28;20068;-80